Other Surface Observations
Issued by NWS Missoula, MT

Home | Current Version | Previous Version | Text Only | Print | Product List | Glossary On
Versions: 1 2 3 4 5 6 7 8 9 10 11 12 13 14 15 16 17 18 19 20 21 22 23 24 25 26 27 28 29 30 31 32 33 34 35 36 37 38 39 40 41 42 43 44 45 46 47 48 49 50
000
SXUS55 KMSO 051003
OSOMSO
MONTANA AWOS SUMMARY
NATIONAL WEATHER SERVICE MISSOULA MT
403 AM MDT TUE MAY 5 2015

Montana AWOS Reports

LAUREL      |K6S8 050955Z AUTO 00000KT 25SM 06/02 A2983 RMK AO1 T00560022
TWIN BRIDGES|K7S1 050955Z AUTO 11004KT 40SM 08/M02 A2986 RMK AO1 T00831016
ROUNDUP     |KRPX 050955Z AUTO 00000KT 40SM 07/03 A2976 RMK AO1 T00670028
MALTA       |KM75 050955Z AUTO 00000KT 40SM 09/03 A2977 RMK AO1 T00940033




USA.gov is the U.S. government's official web portal to all federal, state and local government web resources and services.